TAF and METAR

METAR for Maya-Maya Airport

FCBB 011300Z 17004KT 080V250 9999 FEW020 FEW030CB 33/23 Q1010 NOSIG
Report created 1. apr 15:00
wind 4 knots from S (170°) Wind direction varies from E to WSW visibility > 10km some clouds (~25% cover) at 2000 feet some clouds (~25% cover) at 3000 feet of type cumulonimbus Temperature 33° with dewpoint at 23° (Humidity 55.90%) Pressure 1010 hPa no significant weather change expected the next couple of hours

TAF for Maya-Maya Airport

TAF FCBB 011100Z 0112/0218 26004KT 9000 FEW016 BECMG 0212/0214 FEW020 FEW030CB
Report created 1. apr 13:00

between 1. apr 14:00 - 2. apr 20:00

wind 4 knots from W (260°) visibility 9000 meters some clouds (~25% cover) at 1600 feet

becoming between 2. apr 14:00 - 2. apr 16:00

some clouds (~25% cover) at 2000 feet some clouds (~25% cover) at 3000 feet of type cumulonimbus